Goliah — WDD5908 — position and weather

sailwx.info

Track history (hours):
 
Tides and Currents Weather Stations Pressure Air Temp Water Temp Dewpoint Dewpoint Depression Visibility Wind Speed Wind Dir Waves Ship Positions

Goliah

Owner: Crowley Marine Services, Inc., Seattle, WA. More information available from US FCC via Universal Licensing System and Coast Guard Vessel Documentation Center.

Last reported at 2015-Apr-19 16:31 UTC. Time now 2015-Apr-19 19:11 UTC.
Position N 33°45' W 118°13'.

Length 33 m; draft 4.8 m.

Type: Tug. MMSI: 366898250.

Date/timePositionNaut miles runAvg speedWind from/ knotsBaromVisibWave heightAir tempDewpointWater temp
2015-Apr-19 16:31N 33°45' W 118°13'2 2.3
2015-Apr-19 15:31N 33°44' W 118°12'0 0.2
2015-Apr-19 14:33N 33°44' W 118°12'0 0.4
2015-Apr-19 13:33N 33°44' W 118°12'2 1.7
2015-Apr-19 12:33N 33°45' W 118°13'3 2.7
2015-Apr-19 11:33N 33°43' W 118°15'2 1.1
2015-Apr-19 09:27N 33°44' W 118°17'0 0.0
2015-Apr-19 08:33N 33°44' W 118°17'0 0.0
2015-Apr-19 07:32N 33°44' W 118°17'0 0.0
2015-Apr-19 06:31N 33°44' W 118°17'0 0.0
2015-Apr-19 05:33N 33°44' W 118°17'0 0.0
2015-Apr-19 04:33N 33°44' W 118°17'0 0.0
2015-Apr-19 03:33N 33°44' W 118°17'0 0.0
2015-Apr-19 02:32N 33°44' W 118°17'0 0.0
2015-Apr-19 01:33N 33°44' W 118°17'1 1.3
2015-Apr-19 00:33N 33°43' W 118°16'3 3.4
2015-Apr-18 23:33N 33°45' W 118°12'2 2.2
2015-Apr-18 22:33N 33°44' W 118°10'3 2.9
2015-Apr-18 21:33N 33°45' W 118°13'2 1.9
2015-Apr-18 20:33N 33°44' W 118°13'0 0.1
2015-Apr-18 19:33N 33°44' W 118°13'3 2.8
2015-Apr-18 18:33N 33°44' W 118°17'1 0.6
2015-Apr-18 17:33N 33°44' W 118°17'0 0.0
2015-Apr-18 16:33N 33°44' W 118°17'1 0.6
2015-Apr-18 15:33N 33°44' W 118°17'0 0.0
2015-Apr-18 14:33N 33°44' W 118°17'0 0.0
2015-Apr-18 13:33N 33°44' W 118°17'0 0.0
2015-Apr-18 12:34N 33°44' W 118°17'1 1.2
2015-Apr-18 11:34N 33°46' W 118°16'1 1.2
2015-Apr-18 10:33N 33°44' W 118°17'0 0.0
2015-Apr-18 09:32N 33°44' W 118°17'0 0.0
2015-Apr-18 08:33N 33°44' W 118°17'0 0.0
2015-Apr-18 07:33N 33°44' W 118°17'0 0.0
2015-Apr-18 06:33N 33°44' W 118°17'0 0.0
2015-Apr-18 05:33N 33°44' W 118°17'0 0.0
2015-Apr-18 04:33N 33°44' W 118°17'0 0.0
2015-Apr-18 03:33N 33°44' W 118°17'0 0.0
2015-Apr-18 02:33N 33°44' W 118°17'0 0.0
2015-Apr-18 01:33N 33°44' W 118°17'0 0.0
2015-Apr-18 00:33N 33°44' W 118°17'0 0.0
2015-Apr-17 23:31N 33°44' W 118°17'0 0.0
2015-Apr-17 22:33N 33°44' W 118°17'0 0.0
2015-Apr-17 21:32N 33°44' W 118°17'0 0.0
2015-Apr-17 20:31N 33°44' W 118°17'0 0.0
2015-Apr-17 17:31N 33°44' W 118°17'3 2.8
2015-Apr-17 16:23N 33°45' W 118°13'1 1.1
2015-Apr-17 15:33N 33°44' W 118°13'1 0.9
2015-Apr-17 14:33N 33°44' W 118°13'4 3.5
2015-Apr-17 13:30N 33°40' W 118°11'5 5.7
2015-Apr-17 12:33N 33°45' W 118°14'2 1.0
2015-Apr-17 10:27N 33°43' W 118°14'3 0.3
2015-Apr-17 02:17N 33°44' W 118°17'1 0.7
2015-Apr-17 00:31N 33°44' W 118°16'0 0.4
2015-Apr-16 23:32N 33°44' W 118°15'3 2.7
2015-Apr-16 22:33N 33°46' W 118°14'3 0.6
2015-Apr-16 17:13N 33°44' W 118°17'0 0.0
2015-Apr-16 15:26N 33°44' W 118°17'0 0.0
2015-Apr-16 14:33N 33°44' W 118°17'3 2.9
2015-Apr-16 13:33N 33°44' W 118°13'2 1.8
2015-Apr-16 12:34N 33°46' W 118°13'1 1.3
2015-Apr-16 11:34N 33°45' W 118°13'1 1.4
2015-Apr-16 10:33N 33°43' W 118°13'3 3.4
2015-Apr-16 09:33N 33°44' W 118°17'0 0.0
2015-Apr-16 08:33N 33°44' W 118°17'0 0.0
2015-Apr-16 07:33N 33°44' W 118°17'0 0.0
2015-Apr-16 06:33N 33°44' W 118°17'0 0.0
2015-Apr-16 03:32N 33°44' W 118°17'0 0.0
2015-Apr-16 02:15N 33°44' W 118°17'0 0.0
2015-Apr-16 01:31N 33°44' W 118°17'0 0.0
2015-Apr-16 00:31N 33°44' W 118°17'4 3.8
2015-Apr-15 23:33N 33°44' W 118°12'1 1.0
2015-Apr-15 22:33N 33°44' W 118°11'5 4.6
2015-Apr-15 21:33N 33°44' W 118°17'0 0.0
2015-Apr-15 19:33N 33°44' W 118°17'0 0.0
2015-Apr-15 18:29N 33°44' W 118°17'0 0.0
2015-Apr-15 17:33N 33°44' W 118°17'0 0.0
2015-Apr-15 16:33N 33°44' W 118°17'2 0.3
2015-Apr-15 11:06N 33°43' W 118°15'2 0.3
2015-Apr-15 05:32N 33°44' W 118°17'0 0.0
2015-Apr-15 03:20N 33°44' W 118°17'1 0.6
2015-Apr-15 02:23N 33°45' W 118°16'3 1.9
2015-Apr-15 00:33N 33°44' W 118°12'0 0.5
2015-Apr-14 23:33N 33°44' W 118°13'3 1.6
2015-Apr-14 21:24N 33°44' W 118°17'0 0.0
2015-Apr-14 20:15N 33°44' W 118°17'0 0.0
2015-Apr-14 19:23N 33°44' W 118°17'0 0.0
2015-Apr-14 17:33N 33°44' W 118°17'1 0.7
2015-Apr-14 16:04N 33°44' W 118°16'1 2.3
2015-Apr-14 15:29N 33°43' W 118°15'3 0.2
2015-Apr-14 00:32N 33°45' W 118°13'1 0.6
2015-Apr-13 23:33N 33°45' W 118°13'0 0.3
2015-Apr-13 22:30N 33°45' W 118°13'2 2.1
2015-Apr-13 21:19N 33°45' W 118°16'3 2.8
2015-Apr-13 20:19N 33°43' W 118°15'2 0.5
2015-Apr-13 15:32N 33°44' W 118°17'3 1.7
2015-Apr-13 13:33N 33°46' W 118°13'3 0.9
2015-Apr-13 10:32N 33°45' W 118°16'1 0.3
2015-Apr-13 08:26N 33°44' W 118°17'0 0.0
2015-Apr-13 05:23N 33°44' W 118°17'0 0.0
2015-Apr-13 04:18N 33°44' W 118°17'0 0.0
2015-Apr-13 03:33N 33°44' W 118°17'0 0.0
2015-Apr-13 02:33N 33°44' W 118°17'0 0.0
2015-Apr-13 01:33N 33°44' W 118°17'3 2.9
2015-Apr-13 00:33N 33°43' W 118°13'2 1.6
2015-Apr-12 23:33N 33°45' W 118°13'0 0.3
2015-Apr-12 22:33N 33°45' W 118°13'0 0.3
2015-Apr-12 21:33N 33°45' W 118°13'3 3.5
2015-Apr-12 20:33N 33°44' W 118°17'0 0.0
2015-Apr-12 19:33N 33°44' W 118°17'0 0.0
2015-Apr-12 16:09N 33°44' W 118°17'2 1.3
2015-Apr-12 14:33N 33°43' W 118°15'3 2.7
2015-Apr-12 13:33N 33°45' W 118°13'0 0.1
2015-Apr-12 12:32N 33°45' W 118°13'3 0.5
2015-Apr-12 06:29N 33°44' W 118°17'0 0.0
2015-Apr-12 05:33N 33°44' W 118°17'0 0.0
2015-Apr-12 04:33N 33°44' W 118°17'0 0.0
2015-Apr-12 03:32N 33°44' W 118°17'2 2.3
2015-Apr-12 02:33N 33°43' W 118°15'2 2.1
2015-Apr-12 01:33N 33°44' W 118°13'3 3.3
2015-Apr-12 00:33N 33°44' W 118°17'0 0.0
2015-Apr-11 22:19N 33°44' W 118°17'0 0.0
2015-Apr-11 21:31N 33°44' W 118°17'0 0.0
2015-Apr-11 20:17N 33°44' W 118°17'0 0.0
2015-Apr-11 16:03N 33°44' W 118°17'1 0.9
2015-Apr-11 14:31N 33°44' W 118°15'1 0.5
2015-Apr-11 12:13N 33°43' W 118°15'3 3.7
2015-Apr-11 11:26N 33°45' W 118°16'1 0.8
2015-Apr-11 10:33N 33°46' W 118°17'1 1.0
2015-Apr-11 09:32N 33°46' W 118°15'2 0.7
2015-Apr-11 06:29N 33°44' W 118°17'0 0.0
2015-Apr-11 05:30N 33°44' W 118°17'0 0.0
2015-Apr-11 04:11N 33°44' W 118°17'0 0.0
2015-Apr-11 03:13N 33°44' W 118°17'0 0.0
2015-Apr-11 02:33N 33°44' W 118°17'0 0.0
2015-Apr-11 01:33N 33°44' W 118°17'1 1.2
2015-Apr-11 00:33N 33°44' W 118°16'1 0.6
2015-Apr-10 23:22N 33°44' W 118°16'1 0.1
2015-Apr-10 10:33N 33°45' W 118°16'1 0.2
2015-Apr-10 03:27N 33°44' W 118°17'0 0.0
2015-Apr-10 02:13N 33°44' W 118°17'0 0.0
2015-Apr-10 01:33N 33°44' W 118°17'0 0.1
2015-Apr-10 00:32N 33°44' W 118°17'1 0.7
2015-Apr-09 23:33N 33°44' W 118°16'2 1.5
2015-Apr-09 22:22N 33°45' W 118°17'0 0.1
2015-Apr-09 21:33N 33°45' W 118°17'0 0.1
2015-Apr-09 20:33N 33°45' W 118°17'  
Track history (hours):
 
Tides and Currents Weather Stations Pressure Air Temp Water Temp Dewpoint Dewpoint Depression Visibility Wind Speed Wind Dir Waves Ship Positions

Goliah

Owner: Crowley Marine Services, Inc., Seattle, WA. More information available from US FCC via Universal Licensing System and Coast Guard Vessel Documentation Center.

Last reported at 2015-Apr-19 16:31 UTC. Time now 2015-Apr-19 19:11 UTC.
Position N 33°45' W 118°13'.

Length 33 m; draft 4.8 m.

Type: Tug. MMSI: 366898250.

Date/timePositionNaut miles runAvg speedWind from/ knotsBaromVisibWave heightAir tempDewpointWater temp
2015-Apr-19 16:31N 33°45' W 118°13'2 2.3
2015-Apr-19 15:31N 33°44' W 118°12'0 0.2
2015-Apr-19 14:33N 33°44' W 118°12'0 0.4
2015-Apr-19 13:33N 33°44' W 118°12'2 1.7
2015-Apr-19 12:33N 33°45' W 118°13'3 2.7
2015-Apr-19 11:33N 33°43' W 118°15'2 1.1
2015-Apr-19 09:27N 33°44' W 118°17'0 0.0
2015-Apr-19 08:33N 33°44' W 118°17'0 0.0
2015-Apr-19 07:32N 33°44' W 118°17'0 0.0
2015-Apr-19 06:31N 33°44' W 118°17'0 0.0
2015-Apr-19 05:33N 33°44' W 118°17'0 0.0
2015-Apr-19 04:33N 33°44' W 118°17'0 0.0
2015-Apr-19 03:33N 33°44' W 118°17'0 0.0
2015-Apr-19 02:32N 33°44' W 118°17'0 0.0
2015-Apr-19 01:33N 33°44' W 118°17'1 1.3
2015-Apr-19 00:33N 33°43' W 118°16'3 3.4
2015-Apr-18 23:33N 33°45' W 118°12'2 2.2
2015-Apr-18 22:33N 33°44' W 118°10'3 2.9
2015-Apr-18 21:33N 33°45' W 118°13'2 1.9
2015-Apr-18 20:33N 33°44' W 118°13'0 0.1
2015-Apr-18 19:33N 33°44' W 118°13'3 2.8
2015-Apr-18 18:33N 33°44' W 118°17'1 0.6
2015-Apr-18 17:33N 33°44' W 118°17'0 0.0
2015-Apr-18 16:33N 33°44' W 118°17'1 0.6
2015-Apr-18 15:33N 33°44' W 118°17'0 0.0
2015-Apr-18 14:33N 33°44' W 118°17'0 0.0
2015-Apr-18 13:33N 33°44' W 118°17'0 0.0
2015-Apr-18 12:34N 33°44' W 118°17'1 1.2
2015-Apr-18 11:34N 33°46' W 118°16'1 1.2
2015-Apr-18 10:33N 33°44' W 118°17'0 0.0
2015-Apr-18 09:32N 33°44' W 118°17'0 0.0
2015-Apr-18 08:33N 33°44' W 118°17'0 0.0
2015-Apr-18 07:33N 33°44' W 118°17'0 0.0
2015-Apr-18 06:33N 33°44' W 118°17'0 0.0
2015-Apr-18 05:33N 33°44' W 118°17'0 0.0
2015-Apr-18 04:33N 33°44' W 118°17'0 0.0
2015-Apr-18 03:33N 33°44' W 118°17'0 0.0
2015-Apr-18 02:33N 33°44' W 118°17'0 0.0
2015-Apr-18 01:33N 33°44' W 118°17'0 0.0
2015-Apr-18 00:33N 33°44' W 118°17'0 0.0
2015-Apr-17 23:31N 33°44' W 118°17'0 0.0
2015-Apr-17 22:33N 33°44' W 118°17'0 0.0
2015-Apr-17 21:32N 33°44' W 118°17'0 0.0
2015-Apr-17 20:31N 33°44' W 118°17'0 0.0
2015-Apr-17 17:31N 33°44' W 118°17'3 2.8
2015-Apr-17 16:23N 33°45' W 118°13'1 1.1
2015-Apr-17 15:33N 33°44' W 118°13'1 0.9
2015-Apr-17 14:33N 33°44' W 118°13'4 3.5
2015-Apr-17 13:30N 33°40' W 118°11'5 5.7
2015-Apr-17 12:33N 33°45' W 118°14'2 1.0
2015-Apr-17 10:27N 33°43' W 118°14'3 0.3
2015-Apr-17 02:17N 33°44' W 118°17'1 0.7
2015-Apr-17 00:31N 33°44' W 118°16'0 0.4
2015-Apr-16 23:32N 33°44' W 118°15'3 2.7
2015-Apr-16 22:33N 33°46' W 118°14'3 0.6
2015-Apr-16 17:13N 33°44' W 118°17'0 0.0
2015-Apr-16 15:26N 33°44' W 118°17'0 0.0
2015-Apr-16 14:33N 33°44' W 118°17'3 2.9
2015-Apr-16 13:33N 33°44' W 118°13'2 1.8
2015-Apr-16 12:34N 33°46' W 118°13'1 1.3
2015-Apr-16 11:34N 33°45' W 118°13'1 1.4
2015-Apr-16 10:33N 33°43' W 118°13'3 3.4
2015-Apr-16 09:33N 33°44' W 118°17'0 0.0
2015-Apr-16 08:33N 33°44' W 118°17'0 0.0
2015-Apr-16 07:33N 33°44' W 118°17'0 0.0
2015-Apr-16 06:33N 33°44' W 118°17'0 0.0
2015-Apr-16 03:32N 33°44' W 118°17'0 0.0
2015-Apr-16 02:15N 33°44' W 118°17'0 0.0
2015-Apr-16 01:31N 33°44' W 118°17'0 0.0
2015-Apr-16 00:31N 33°44' W 118°17'4 3.8
2015-Apr-15 23:33N 33°44' W 118°12'1 1.0
2015-Apr-15 22:33N 33°44' W 118°11'5 4.6
2015-Apr-15 21:33N 33°44' W 118°17'0 0.0
2015-Apr-15 19:33N 33°44' W 118°17'0 0.0
2015-Apr-15 18:29N 33°44' W 118°17'0 0.0
2015-Apr-15 17:33N 33°44' W 118°17'0 0.0
2015-Apr-15 16:33N 33°44' W 118°17'2 0.3
2015-Apr-15 11:06N 33°43' W 118°15'2 0.3
2015-Apr-15 05:32N 33°44' W 118°17'0 0.0
2015-Apr-15 03:20N 33°44' W 118°17'1 0.6
2015-Apr-15 02:23N 33°45' W 118°16'3 1.9
2015-Apr-15 00:33N 33°44' W 118°12'0 0.5
2015-Apr-14 23:33N 33°44' W 118°13'3 1.6
2015-Apr-14 21:24N 33°44' W 118°17'0 0.0
2015-Apr-14 20:15N 33°44' W 118°17'0 0.0
2015-Apr-14 19:23N 33°44' W 118°17'0 0.0
2015-Apr-14 17:33N 33°44' W 118°17'1 0.7
2015-Apr-14 16:04N 33°44' W 118°16'1 2.3
2015-Apr-14 15:29N 33°43' W 118°15'3 0.2
2015-Apr-14 00:32N 33°45' W 118°13'1 0.6
2015-Apr-13 23:33N 33°45' W 118°13'0 0.3
2015-Apr-13 22:30N 33°45' W 118°13'2 2.1
2015-Apr-13 21:19N 33°45' W 118°16'3 2.8
2015-Apr-13 20:19N 33°43' W 118°15'2 0.5
2015-Apr-13 15:32N 33°44' W 118°17'3 1.7
2015-Apr-13 13:33N 33°46' W 118°13'3 0.9
2015-Apr-13 10:32N 33°45' W 118°16'1 0.3
2015-Apr-13 08:26N 33°44' W 118°17'0 0.0
2015-Apr-13 05:23N 33°44' W 118°17'0 0.0
2015-Apr-13 04:18N 33°44' W 118°17'0 0.0
2015-Apr-13 03:33N 33°44' W 118°17'0 0.0
2015-Apr-13 02:33N 33°44' W 118°17'0 0.0
2015-Apr-13 01:33N 33°44' W 118°17'3 2.9
2015-Apr-13 00:33N 33°43' W 118°13'2 1.6
2015-Apr-12 23:33N 33°45' W 118°13'0 0.3
2015-Apr-12 22:33N 33°45' W 118°13'0 0.3
2015-Apr-12 21:33N 33°45' W 118°13'3 3.5
2015-Apr-12 20:33N 33°44' W 118°17'0 0.0
2015-Apr-12 19:33N 33°44' W 118°17'0 0.0
2015-Apr-12 16:09N 33°44' W 118°17'2 1.3
2015-Apr-12 14:33N 33°43' W 118°15'3 2.7
2015-Apr-12 13:33N 33°45' W 118°13'0 0.1
2015-Apr-12 12:32N 33°45' W 118°13'3 0.5
2015-Apr-12 06:29N 33°44' W 118°17'0 0.0
2015-Apr-12 05:33N 33°44' W 118°17'0 0.0
2015-Apr-12 04:33N 33°44' W 118°17'0 0.0
2015-Apr-12 03:32N 33°44' W 118°17'2 2.3
2015-Apr-12 02:33N 33°43' W 118°15'2 2.1
2015-Apr-12 01:33N 33°44' W 118°13'3 3.3
2015-Apr-12 00:33N 33°44' W 118°17'0 0.0
2015-Apr-11 22:19N 33°44' W 118°17'0 0.0
2015-Apr-11 21:31N 33°44' W 118°17'0 0.0
2015-Apr-11 20:17N 33°44' W 118°17'0 0.0
2015-Apr-11 16:03N 33°44' W 118°17'1 0.9
2015-Apr-11 14:31N 33°44' W 118°15'1 0.5
2015-Apr-11 12:13N 33°43' W 118°15'3 3.7
2015-Apr-11 11:26N 33°45' W 118°16'1 0.8
2015-Apr-11 10:33N 33°46' W 118°17'1 1.0
2015-Apr-11 09:32N 33°46' W 118°15'2 0.7
2015-Apr-11 06:29N 33°44' W 118°17'0 0.0
2015-Apr-11 05:30N 33°44' W 118°17'0 0.0
2015-Apr-11 04:11N 33°44' W 118°17'0 0.0
2015-Apr-11 03:13N 33°44' W 118°17'0 0.0
2015-Apr-11 02:33N 33°44' W 118°17'0 0.0
2015-Apr-11 01:33N 33°44' W 118°17'1 1.2
2015-Apr-11 00:33N 33°44' W 118°16'1 0.6
2015-Apr-10 23:22N 33°44' W 118°16'1 0.1
2015-Apr-10 10:33N 33°45' W 118°16'1 0.2
2015-Apr-10 03:27N 33°44' W 118°17'0 0.0
2015-Apr-10 02:13N 33°44' W 118°17'0 0.0
2015-Apr-10 01:33N 33°44' W 118°17'0 0.1
2015-Apr-10 00:32N 33°44' W 118°17'1 0.7
2015-Apr-09 23:33N 33°44' W 118°16'2 1.5
2015-Apr-09 22:22N 33°45' W 118°17'0 0.1
2015-Apr-09 21:33N 33°45' W 118°17'0 0.1
2015-Apr-09 20:33N 33°45' W 118°17'  

Dump ship's entire track history